Time;durP1;ratioP1;P1;durP2;ratioP2;P2;SDS_P1;SDS_P2;PMS_P1;PMS_P2;Temp;Humidity;BMP_temperature;BMP_pressure;BME280_temperature;BME280_humidity;BME280_pressure;Samples;Min_cycle;Max_cycle;Signal;HPM_P1;HPM_P2
2024/01/09 00:01:14;;;;;;;3.83;1.60;;;-4.40;99.90;;;;;;4938050;28;20210;-46
2024/01/09 00:03:41;;;;;;;3.60;1.93;;;-4.30;99.90;;;;;;4963925;28;20202;-46
2024/01/09 00:06:14;;;;;;;3.13;2.07;;;-4.40;99.90;;;;;;4960412;28;20213;-46
2024/01/09 00:08:41;;;;;;;2.43;1.70;;;-4.40;99.90;;;;;;4933158;28;20202;-45
2024/01/09 00:11:08;;;;;;;5.77;1.97;;;-4.40;99.90;;;;;;4953638;28;21081;-44
2024/01/09 00:13:35;;;;;;;3.60;1.80;;;-4.40;99.90;;;;;;4951518;28;20210;-45
2024/01/09 00:16:02;;;;;;;2.47;2.23;;;-4.40;99.90;;;;;;4950950;28;20393;-47
2024/01/09 00:18:29;;;;;;;2.83;1.93;;;-4.50;99.90;;;;;;4958194;28;20265;-47
2024/01/09 00:20:56;;;;;;;5.17;2.20;;;-4.50;99.90;;;;;;4961091;28;20266;-48
2024/01/09 00:23:24;;;;;;;2.63;1.83;;;-4.50;99.90;;;;;;4964356;28;20276;-47
2024/01/09 00:25:50;;;;;;;3.00;1.90;;;-4.60;99.90;;;;;;4926199;28;20225;-48
2024/01/09 00:28:18;;;;;;;3.63;2.00;;;-4.50;99.90;;;;;;4942973;28;20339;-47
2024/01/09 00:30:45;;;;;;;4.10;1.87;;;-4.60;99.90;;;;;;4962927;28;21065;-46
2024/01/09 00:33:11;;;;;;;3.93;1.57;;;-4.60;99.90;;;;;;4945697;28;20240;-47
2024/01/09 00:35:39;;;;;;;2.70;1.70;;;-4.60;99.90;;;;;;4959437;28;20218;-48
2024/01/09 00:38:05;;;;;;;4.53;1.97;;;-4.70;99.90;;;;;;4958695;28;20267;-46
2024/01/09 00:40:34;;;;;;;3.47;1.70;;;-4.70;99.90;;;;;;4925291;28;20357;-55
2024/01/09 00:43:00;;;;;;;3.83;1.73;;;-4.70;99.90;;;;;;4956539;28;20202;-47
2024/01/09 00:45:27;;;;;;;4.40;1.80;;;-4.80;99.90;;;;;;4962534;28;20292;-47
2024/01/09 00:47:54;;;;;;;3.60;2.17;;;-4.90;99.90;;;;;;4955433;28;20598;-47
2024/01/09 00:50:21;;;;;;;3.23;1.37;;;-4.90;99.90;;;;;;4947869;28;20297;-46
2024/01/09 00:52:49;;;;;;;2.13;1.53;;;-4.90;99.90;;;;;;4955964;28;20213;-47
2024/01/09 00:55:16;;;;;;;2.17;1.53;;;-4.90;99.90;;;;;;4926030;28;20278;-46
2024/01/09 00:57:45;;;;;;;2.73;1.87;;;-4.90;99.90;;;;;;4961140;28;20938;-46
2024/01/09 01:00:12;;;;;;;1.60;1.50;;;-4.90;99.90;;;;;;4963882;28;20209;-44
2024/01/09 01:02:39;;;;;;;4.13;1.80;;;-4.90;99.90;;;;;;4951082;28;20213;-47
2024/01/09 01:05:07;;;;;;;3.03;1.70;;;-4.90;99.90;;;;;;4955443;28;20248;-46
2024/01/09 01:07:34;;;;;;;2.20;1.67;;;-5.00;99.90;;;;;;4952122;28;20932;-46
2024/01/09 01:10:01;;;;;;;3.50;1.77;;;-5.00;99.90;;;;;;4960656;28;20592;-46
2024/01/09 01:12:28;;;;;;;3.80;1.90;;;-5.00;99.90;;;;;;4936132;28;20214;-46
2024/01/09 01:14:56;;;;;;;4.17;2.10;;;-5.00;99.90;;;;;;4957334;28;20229;-47
2024/01/09 01:17:23;;;;;;;3.20;1.60;;;-5.00;99.90;;;;;;4959881;28;20190;-47
2024/01/09 01:19:50;;;;;;;5.60;2.07;;;-5.00;99.90;;;;;;4942774;28;20662;-47
2024/01/09 01:22:16;;;;;;;4.67;1.87;;;-5.00;99.90;;;;;;4958738;28;20204;-45
2024/01/09 01:24:43;;;;;;;2.43;2.10;;;-5.00;99.90;;;;;;4959623;28;20206;-47
2024/01/09 01:27:10;;;;;;;2.57;1.80;;;-5.00;99.90;;;;;;4923560;28;20210;-45
2024/01/09 01:29:37;;;;;;;6.30;1.90;;;-5.00;99.90;;;;;;4960761;28;20205;-49
2024/01/09 01:32:09;;;;;;;3.50;1.97;;;-5.00;99.90;;;;;;4957572;28;20214;-46
2024/01/09 01:34:36;;;;;;;3.87;1.80;;;-5.10;99.90;;;;;;4943776;28;20216;-46
2024/01/09 01:37:03;;;;;;;3.00;1.80;;;-5.10;99.90;;;;;;4949457;28;20228;-46
2024/01/09 01:39:29;;;;;;;3.23;1.73;;;-5.10;99.90;;;;;;4959586;28;20197;-47
2024/01/09 01:41:56;;;;;;;3.80;1.80;;;-5.10;99.90;;;;;;4962965;28;20268;-47
2024/01/09 01:44:23;;;;;;;2.70;1.70;;;-5.10;99.90;;;;;;4931988;28;20206;-46
2024/01/09 01:46:51;;;;;;;5.57;1.93;;;-5.10;99.90;;;;;;4956087;28;20225;-49
2024/01/09 01:49:20;;;;;;;5.80;2.37;;;-5.10;99.90;;;;;;4953996;28;20846;-45
2024/01/09 01:51:50;;;;;;;3.10;1.77;;;-5.10;99.90;;;;;;4954766;28;20819;-46
2024/01/09 01:54:17;;;;;;;2.20;1.87;;;-5.10;99.90;;;;;;4963781;28;20213;-48
2024/01/09 01:56:46;;;;;;;4.20;1.90;;;-5.10;99.90;;;;;;4962929;28;20268;-50
2024/01/09 01:59:16;;;;;;;4.63;2.27;;;-5.20;99.90;;;;;;4932198;28;20686;-45
2024/01/09 02:01:43;;;;;;;2.97;1.97;;;-5.20;99.90;;;;;;4952952;28;20209;-49
2024/01/09 02:04:11;;;;;;;2.37;2.17;;;-5.20;99.90;;;;;;4954325;28;20216;-48
2024/01/09 02:06:41;;;;;;;3.27;1.73;;;-5.20;99.90;;;;;;4953638;28;20225;-47
2024/01/09 02:09:08;;;;;;;4.80;2.20;;;-5.20;99.90;;;;;;4961741;28;20261;-48
2024/01/09 02:11:35;;;;;;;4.93;1.77;;;-5.20;99.90;;;;;;4951800;28;20221;-47
2024/01/09 02:14:01;;;;;;;2.50;2.00;;;-5.20;99.90;;;;;;4932923;28;20637;-47
2024/01/09 02:16:29;;;;;;;3.83;2.23;;;-5.20;99.90;;;;;;4948198;28;20225;-45
2024/01/09 02:18:55;;;;;;;4.43;2.17;;;-5.30;99.90;;;;;;4958778;28;20870;-52
2024/01/09 02:21:22;;;;;;;4.27;2.03;;;-5.30;99.90;;;;;;4958552;28;20769;-49
2024/01/09 02:23:51;;;;;;;2.33;1.90;;;-5.30;99.90;;;;;;4962907;28;20618;-49
2024/01/09 02:26:21;;;;;;;3.80;1.73;;;-5.30;99.90;;;;;;4959423;28;20237;-48
2024/01/09 02:28:52;;;;;;;3.90;2.40;;;-5.30;99.90;;;;;;4958977;28;20849;-46
2024/01/09 02:31:21;;;;;;;2.33;2.07;;;-5.30;99.90;;;;;;4922761;28;20296;-47
2024/01/09 02:33:48;;;;;;;6.13;2.17;;;-5.30;99.90;;;;;;4958495;28;20679;-48
2024/01/09 02:36:14;;;;;;;7.10;2.10;;;-5.40;99.90;;;;;;4955883;28;20294;-45
2024/01/09 02:38:43;;;;;;;3.47;2.37;;;-5.50;99.90;;;;;;4954410;28;20224;-48
2024/01/09 02:41:10;;;;;;;4.00;2.23;;;-5.50;99.90;;;;;;4965321;28;20201;-48
2024/01/09 02:43:36;;;;;;;4.07;2.40;;;-5.50;99.90;;;;;;4953828;28;20297;-48
2024/01/09 02:46:03;;;;;;;3.47;2.50;;;-5.50;99.90;;;;;;4935548;28;20232;-47
2024/01/09 02:48:32;;;;;;;2.13;1.93;;;-5.60;99.90;;;;;;4953930;28;20217;-48
2024/01/09 02:50:58;;;;;;;2.87;2.00;;;-5.60;99.90;;;;;;4967611;28;20748;-49
2024/01/09 02:53:25;;;;;;;3.33;2.43;;;-5.60;99.90;;;;;;4950048;28;20204;-49
2024/01/09 02:55:52;;;;;;;4.37;2.10;;;-5.70;99.90;;;;;;4965117;28;20294;-46
2024/01/09 02:58:19;;;;;;;2.40;2.20;;;-5.70;99.90;;;;;;4947286;28;20220;-45
2024/01/09 03:00:46;;;;;;;2.93;2.20;;;-5.70;99.90;;;;;;4932150;28;20216;-45
2024/01/09 03:03:12;;;;;;;5.17;2.13;;;-5.70;99.90;;;;;;4956229;28;20674;-44
2024/01/09 03:05:41;;;;;;;2.53;2.27;;;-5.70;99.90;;;;;;4957587;28;20232;-47
2024/01/09 03:08:07;;;;;;;3.57;2.40;;;-5.70;99.90;;;;;;4934498;28;23083;-49
2024/01/09 03:10:34;;;;;;;2.57;2.30;;;-5.70;99.90;;;;;;4961890;28;20302;-46
2024/01/09 03:13:01;;;;;;;3.53;2.57;;;-5.80;99.90;;;;;;4954262;28;20264;-45
2024/01/09 03:15:28;;;;;;;3.40;2.37;;;-5.80;99.90;;;;;;4962630;28;20227;-48
2024/01/09 03:17:55;;;;;;;3.73;2.23;;;-5.90;99.90;;;;;;4935061;28;20966;-47
2024/01/09 03:20:22;;;;;;;4.33;2.57;;;-5.90;99.90;;;;;;4952592;28;20307;-50
2024/01/09 03:22:50;;;;;;;3.60;2.40;;;-6.00;99.90;;;;;;4959208;28;20204;-44
2024/01/09 03:25:17;;;;;;;4.37;2.57;;;-6.00;99.90;;;;;;4950076;28;20226;-45
2024/01/09 03:27:43;;;;;;;7.47;2.60;;;-6.00;99.90;;;;;;4959356;28;20201;-43
2024/01/09 03:30:11;;;;;;;3.93;2.40;;;-6.00;99.90;;;;;;4961391;28;20848;-45
2024/01/09 03:32:38;;;;;;;2.60;2.20;;;-6.00;99.90;;;;;;4936925;28;20210;-48
2024/01/09 03:35:05;;;;;;;6.20;3.00;;;-6.00;99.90;;;;;;4956167;28;20913;-42
2024/01/09 03:37:32;;;;;;;5.17;2.70;;;-6.00;99.90;;;;;;4948246;28;20283;-45
2024/01/09 03:40:00;;;;;;;7.53;3.03;;;-6.00;99.90;;;;;;4952522;28;20209;-46
2024/01/09 03:42:27;;;;;;;3.37;2.33;;;-6.00;99.90;;;;;;4959105;28;20321;-47
2024/01/09 03:44:53;;;;;;;5.63;2.93;;;-6.00;99.90;;;;;;4965116;28;20277;-46
2024/01/09 03:47:20;;;;;;;3.40;2.90;;;-6.00;99.90;;;;;;4952469;28;20247;-48
2024/01/09 03:49:47;;;;;;;4.87;3.17;;;-6.00;99.90;;;;;;4942376;28;20205;-46
2024/01/09 03:52:14;;;;;;;6.03;2.90;;;-6.00;99.90;;;;;;4956894;28;20256;-51
2024/01/09 03:54:41;;;;;;;5.47;2.87;;;-6.00;99.90;;;;;;4938571;28;20204;-45
2024/01/09 03:57:10;;;;;;;5.40;2.90;;;-6.10;99.90;;;;;;4963783;28;20212;-45
2024/01/09 03:59:37;;;;;;;4.53;2.40;;;-6.00;99.90;;;;;;4961657;28;20268;-43
2024/01/09 04:02:04;;;;;;;4.13;3.27;;;-6.10;99.90;;;;;;4965948;28;20297;-43
2024/01/09 04:04:31;;;;;;;7.53;3.63;;;-6.10;99.90;;;;;;4914669;28;20299;-47
2024/01/09 04:06:58;;;;;;;4.57;3.10;;;-6.10;99.90;;;;;;4959997;28;20262;-46
2024/01/09 04:09:25;;;;;;;3.07;2.73;;;-6.10;99.90;;;;;;4934392;28;20213;-48
2024/01/09 04:11:52;;;;;;;3.33;2.90;;;-6.10;99.90;;;;;;4964150;28;20314;-43
2024/01/09 04:14:20;;;;;;;5.10;2.87;;;-6.10;99.90;;;;;;4962825;28;20207;-49
2024/01/09 04:16:47;;;;;;;3.50;3.10;;;-6.00;99.90;;;;;;4962911;28;20969;-46
2024/01/09 04:19:14;;;;;;;3.63;2.93;;;-6.00;99.90;;;;;;4932978;28;20573;-46
2024/01/09 04:21:41;;;;;;;4.50;3.40;;;-6.00;99.90;;;;;;4949424;28;20210;-44
2024/01/09 04:24:08;;;;;;;6.07;3.30;;;-6.00;99.90;;;;;;4950770;28;20208;-43
2024/01/09 04:26:36;;;;;;;6.73;3.43;;;-6.00;99.90;;;;;;4959229;28;20220;-47
2024/01/09 04:29:03;;;;;;;6.97;3.37;;;-6.00;99.90;;;;;;4964109;28;20207;-42
2024/01/09 04:31:31;;;;;;;3.70;2.90;;;-6.00;99.90;;;;;;4961688;28;20703;-44
2024/01/09 04:33:58;;;;;;;5.87;3.50;;;-6.00;99.90;;;;;;4959268;28;20261;-47
2024/01/09 04:36:24;;;;;;;5.23;3.20;;;-5.90;99.90;;;;;;4918768;28;20229;-48
2024/01/09 04:38:51;;;;;;;4.93;2.97;;;-6.00;99.90;;;;;;4955003;28;20217;-46
2024/01/09 04:41:18;;;;;;;5.73;3.80;;;-6.10;99.90;;;;;;4954189;28;20231;-51
2024/01/09 04:43:46;;;;;;;5.73;3.27;;;-6.20;99.90;;;;;;4962991;28;20196;-46
2024/01/09 04:46:13;;;;;;;4.63;3.03;;;-6.20;99.90;;;;;;4963637;28;20249;-50
2024/01/09 04:48:41;;;;;;;5.07;3.60;;;-6.20;99.90;;;;;;4956570;28;20209;-46
2024/01/09 04:51:09;;;;;;;6.37;3.33;;;-6.20;99.90;;;;;;4925295;28;20535;-47
2024/01/09 04:53:36;;;;;;;5.63;3.70;;;-6.20;99.90;;;;;;4959905;28;20197;-48
2024/01/09 04:56:04;;;;;;;4.43;3.10;;;-6.20;99.90;;;;;;4945138;28;20737;-45
2024/01/09 04:58:30;;;;;;;4.83;3.13;;;-6.10;99.90;;;;;;4959996;28;20267;-45
2024/01/09 05:00:57;;;;;;;5.63;3.97;;;-6.20;99.90;;;;;;4961056;28;20185;-45
2024/01/09 05:03:24;;;;;;;8.07;4.13;;;-6.20;99.90;;;;;;4949676;28;20228;-50
2024/01/09 05:05:52;;;;;;;5.10;2.97;;;-6.20;99.90;;;;;;4921565;28;20734;-43
2024/01/09 05:08:19;;;;;;;5.07;3.40;;;-6.20;99.90;;;;;;4949769;28;20287;-44
2024/01/09 05:10:46;;;;;;;5.20;3.90;;;-6.30;99.90;;;;;;4951661;28;20281;-46
2024/01/09 05:13:13;;;;;;;6.53;4.40;;;-6.20;99.90;;;;;;4953364;28;20206;-53
2024/01/09 05:15:39;;;;;;;5.53;3.37;;;-6.30;99.90;;;;;;4953253;28;20826;-47
2024/01/09 05:18:07;;;;;;;7.27;3.50;;;-6.30;99.90;;;;;;4953388;28;20201;-52
2024/01/09 05:20:33;;;;;;;6.70;3.50;;;-6.30;99.90;;;;;;4960823;28;20204;-44
2024/01/09 05:23:02;;;;;;;6.63;3.27;;;-6.20;99.90;;;;;;4932535;28;20224;-45
2024/01/09 05:25:29;;;;;;;4.50;3.70;;;-6.30;99.90;;;;;;4950570;28;20224;-43
2024/01/09 05:27:56;;;;;;;4.27;3.40;;;-6.30;99.90;;;;;;4955399;28;20205;-45
2024/01/09 05:30:23;;;;;;;6.60;3.87;;;-6.30;99.90;;;;;;4957137;28;20197;-49
2024/01/09 05:32:50;;;;;;;6.63;4.43;;;-6.20;99.90;;;;;;4957846;28;20705;-46
2024/01/09 05:35:17;;;;;;;8.03;4.33;;;-6.20;99.90;;;;;;4961956;28;21031;-46
2024/01/09 05:37:44;;;;;;;8.17;4.60;;;-6.30;99.90;;;;;;4930453;28;20233;-50
2024/01/09 05:40:13;;;;;;;6.83;4.27;;;-6.30;99.90;;;;;;4964840;28;20229;-44
2024/01/09 05:42:40;;;;;;;7.83;5.23;;;-6.30;99.90;;;;;;4937969;28;20343;-53
2024/01/09 05:45:07;;;;;;;5.60;4.33;;;-6.30;99.90;;;;;;4954116;28;20233;-48
2024/01/09 05:47:34;;;;;;;7.10;4.27;;;-6.30;99.90;;;;;;4961227;28;20686;-46
2024/01/09 05:50:01;;;;;;;8.20;4.00;;;-6.40;99.90;;;;;;4963571;28;20275;-45
2024/01/09 05:52:28;;;;;;;5.23;3.90;;;-6.40;99.90;;;;;;4934089;28;20253;-47
2024/01/09 05:54:55;;;;;;;9.00;4.50;;;-6.40;99.90;;;;;;4952560;28;20199;-46
2024/01/09 05:57:24;;;;;;;6.47;4.53;;;-6.50;99.90;;;;;;4949532;28;20601;-46
2024/01/09 05:59:50;;;;;;;7.87;4.43;;;-6.50;99.90;;;;;;4940464;28;20250;-42
2024/01/09 06:02:17;;;;;;;6.90;3.90;;;-6.50;99.90;;;;;;4962926;28;20195;-47
2024/01/09 06:04:44;;;;;;;7.27;4.87;;;-6.50;99.90;;;;;;4962617;28;20200;-49
2024/01/09 06:07:11;;;;;;;7.00;4.73;;;-6.50;99.90;;;;;;4967443;28;20203;-44
2024/01/09 06:09:38;;;;;;;7.20;3.97;;;-6.50;99.90;;;;;;4934185;28;20574;-45
2024/01/09 06:12:05;;;;;;;5.13;4.00;;;-6.50;99.90;;;;;;4948557;28;21339;-47
2024/01/09 06:14:34;;;;;;;7.00;3.97;;;-6.50;99.90;;;;;;4951390;28;20207;-47
2024/01/09 06:17:01;;;;;;;7.40;4.77;;;-6.50;99.90;;;;;;4965374;28;20905;-43
2024/01/09 06:19:27;;;;;;;9.33;4.63;;;-6.50;99.90;;;;;;4969817;28;20212;-44
2024/01/09 06:21:54;;;;;;;6.87;4.70;;;-6.50;99.90;;;;;;4963326;28;20283;-45
2024/01/09 06:24:21;;;;;;;9.87;5.20;;;-6.50;99.90;;;;;;4926180;28;20355;-45
2024/01/09 06:26:48;;;;;;;10.70;4.43;;;-6.60;99.90;;;;;;4956282;28;20244;-48
2024/01/09 06:29:15;;;;;;;7.60;5.10;;;-6.60;99.90;;;;;;4944955;28;20204;-46
2024/01/09 06:31:43;;;;;;;9.20;5.00;;;-6.50;99.90;;;;;;4961997;28;20287;-46
2024/01/09 06:34:10;;;;;;;7.47;5.07;;;-6.50;99.90;;;;;;4953866;28;20280;-44
2024/01/09 06:36:37;;;;;;;6.43;5.03;;;-6.60;99.90;;;;;;4964980;28;20215;-48
2024/01/09 06:39:04;;;;;;;8.80;5.47;;;-6.60;99.90;;;;;;4948896;28;20266;-44
2024/01/09 06:41:30;;;;;;;8.23;5.77;;;-6.60;99.90;;;;;;4930280;28;20204;-47
2024/01/09 06:43:58;;;;;;;9.97;6.07;;;-6.50;99.90;;;;;;4955824;28;20215;-46
2024/01/09 06:46:24;;;;;;;9.30;5.27;;;-6.50;99.90;;;;;;4954464;28;20212;-56
2024/01/09 06:48:53;;;;;;;9.30;6.10;;;-6.50;99.90;;;;;;4963732;28;20267;-45
2024/01/09 06:51:20;;;;;;;11.10;6.63;;;-6.50;99.90;;;;;;4965520;28;20190;-45
2024/01/09 06:53:46;;;;;;;14.53;8.23;;;-6.60;99.90;;;;;;4958132;28;20661;-45
2024/01/09 06:56:13;;;;;;;10.40;7.27;;;-6.60;99.90;;;;;;4922032;28;20230;-45
2024/01/09 06:58:40;;;;;;;11.03;7.10;;;-6.50;99.90;;;;;;4963828;28;20676;-46
2024/01/09 07:01:07;;;;;;;10.33;6.77;;;-6.50;99.90;;;;;;4940725;28;20294;-46
2024/01/09 07:03:35;;;;;;;12.73;7.20;;;-6.50;99.90;;;;;;4962365;28;20201;-46
2024/01/09 07:06:03;;;;;;;15.53;7.17;;;-6.50;99.90;;;;;;4945812;28;20292;-49
2024/01/09 07:08:30;;;;;;;10.97;6.80;;;-6.50;99.90;;;;;;4949659;28;20210;-45
2024/01/09 07:10:57;;;;;;;13.13;6.90;;;-6.50;99.90;;;;;;4928870;28;20571;-46
2024/01/09 07:13:25;;;;;;;13.37;7.17;;;-6.50;99.90;;;;;;4962110;28;20344;-47
2024/01/09 07:15:52;;;;;;;9.97;6.80;;;-6.50;99.90;;;;;;4945272;28;20237;-47
2024/01/09 07:18:19;;;;;;;10.23;6.33;;;-6.50;99.90;;;;;;4961844;28;20188;-47
2024/01/09 07:20:46;;;;;;;14.57;8.17;;;-6.50;99.90;;;;;;4953544;28;20215;-45
2024/01/09 07:23:14;;;;;;;9.83;6.43;;;-6.50;99.90;;;;;;4948124;28;20262;-46
2024/01/09 07:25:41;;;;;;;12.90;6.80;;;-6.50;99.90;;;;;;4956337;28;20790;-47
2024/01/09 07:28:08;;;;;;;14.73;6.87;;;-6.50;99.90;;;;;;4923695;28;20219;-50
2024/01/09 07:30:35;;;;;;;8.00;5.83;;;-6.50;99.90;;;;;;4953145;28;20239;-45
2024/01/09 07:33:02;;;;;;;10.13;7.03;;;-6.50;99.90;;;;;;4959115;28;20283;-46
2024/01/09 07:35:34;;;;;;;9.93;6.53;;;-6.50;99.90;;;;;;4940575;28;20310;-48
2024/01/09 07:38:01;;;;;;;8.97;6.07;;;-6.50;99.90;;;;;;4949719;28;20270;-50
2024/01/09 07:40:29;;;;;;;9.80;6.03;;;-6.50;99.90;;;;;;4961069;28;20204;-48
2024/01/09 07:42:58;;;;;;;12.40;6.57;;;-6.50;99.90;;;;;;4921603;28;20217;-47
2024/01/09 07:45:28;;;;;;;12.20;7.07;;;-6.50;99.90;;;;;;4963772;28;20233;-44
2024/01/09 07:47:56;;;;;;;11.43;6.90;;;-6.50;99.90;;;;;;4948455;28;20354;-46
2024/01/09 07:50:23;;;;;;;7.67;6.07;;;-6.50;99.90;;;;;;4956172;28;20198;-44
2024/01/09 07:52:50;;;;;;;11.47;6.80;;;-6.50;99.90;;;;;;4950475;28;20216;-45
2024/01/09 07:55:17;;;;;;;13.20;6.83;;;-6.50;99.90;;;;;;4964218;28;20239;-46
2024/01/09 07:57:45;;;;;;;10.30;5.83;;;-6.50;99.90;;;;;;4924956;28;20272;-46
2024/01/09 08:00:14;;;;;;;12.43;6.20;;;-6.50;99.90;;;;;;4970363;28;20280;-46
2024/01/09 08:02:40;;;;;;;8.73;6.07;;;-6.60;99.90;;;;;;4933275;28;20216;-43
2024/01/09 08:05:08;;;;;;;10.67;7.03;;;-6.60;99.90;;;;;;4958850;28;20276;-45
2024/01/09 08:07:36;;;;;;;11.50;6.67;;;-6.50;99.90;;;;;;4955983;28;20208;-46
2024/01/09 08:10:03;;;;;;;10.97;6.50;;;-6.50;99.90;;;;;;4951199;28;20204;-44
2024/01/09 08:12:30;;;;;;;14.53;7.17;;;-6.40;99.90;;;;;;4953645;28;20217;-46
2024/01/09 08:14:58;;;;;;;13.10;6.23;;;-6.40;99.90;;;;;;4935513;28;20208;-47
2024/01/09 08:17:25;;;;;;;12.13;7.40;;;-6.30;99.90;;;;;;4946194;28;20267;-46
2024/01/09 08:19:52;;;;;;;9.03;6.57;;;-6.30;99.90;;;;;;4958862;28;21019;-48
2024/01/09 08:22:19;;;;;;;9.07;6.30;;;-6.30;99.90;;;;;;4957481;28;20232;-46
2024/01/09 08:24:46;;;;;;;8.73;6.00;;;-6.30;99.90;;;;;;4950067;28;20280;-46
2024/01/09 08:27:13;;;;;;;16.97;7.80;;;-6.20;99.90;;;;;;4962163;28;20201;-45
2024/01/09 08:29:39;;;;;;;13.93;7.10;;;-6.10;99.90;;;;;;4925541;28;20207;-44
2024/01/09 08:32:11;;;;;;;10.50;6.63;;;-6.10;99.90;;;;;;4947605;28;20221;-47
2024/01/09 08:34:38;;;;;;;10.80;6.47;;;-6.10;99.90;;;;;;4961264;28;20295;-45
2024/01/09 08:37:05;;;;;;;9.60;6.20;;;-6.00;99.90;;;;;;4955291;28;20853;-49
2024/01/09 08:39:32;;;;;;;10.00;6.93;;;-6.00;99.90;;;;;;4954934;28;20213;-46
2024/01/09 08:41:59;;;;;;;8.87;6.23;;;-5.90;99.90;;;;;;4952708;28;20196;-49
2024/01/09 08:44:27;;;;;;;11.40;6.80;;;-5.90;99.90;;;;;;4926955;28;20733;-46
2024/01/09 08:46:53;;;;;;;8.77;6.17;;;-5.80;99.90;;;;;;4956188;28;20451;-45
2024/01/09 08:49:22;;;;;;;10.73;6.40;;;-5.80;99.90;;;;;;4953737;28;20215;-47
2024/01/09 08:51:48;;;;;;;10.07;6.83;;;-5.70;99.90;;;;;;4952311;28;20200;-46
2024/01/09 08:54:15;;;;;;;8.20;6.10;;;-5.70;99.90;;;;;;4963780;28;20285;-48
2024/01/09 08:56:42;;;;;;;11.73;6.67;;;-5.60;99.90;;;;;;4948198;28;20310;-45
2024/01/09 08:59:09;;;;;;;10.93;6.93;;;-5.50;99.90;;;;;;4931475;28;20311;-48
2024/01/09 09:01:36;;;;;;;11.40;6.60;;;-5.50;99.90;;;;;;4958528;28;20235;-48
2024/01/09 09:04:03;;;;;;;9.47;6.67;;;-5.40;99.90;;;;;;4952040;28;20271;-45
2024/01/09 09:06:31;;;;;;;10.43;6.77;;;-5.40;99.90;;;;;;4963011;28;20275;-49
2024/01/09 09:08:59;;;;;;;8.50;6.17;;;-5.30;99.90;;;;;;4953053;28;20208;-46
2024/01/09 09:11:26;;;;;;;9.80;6.50;;;-5.20;99.90;;;;;;4950522;28;20232;-49
2024/01/09 09:13:53;;;;;;;9.53;6.57;;;-5.20;99.90;;;;;;4945102;28;20238;-47
2024/01/09 09:16:20;;;;;;;11.00;7.17;;;-5.10;99.90;;;;;;4938596;28;20342;-48
2024/01/09 09:18:46;;;;;;;10.90;6.97;;;-5.00;99.90;;;;;;4959066;28;20198;-46
2024/01/09 09:21:13;;;;;;;9.90;6.43;;;-4.90;99.90;;;;;;4952762;28;20205;-50
2024/01/09 09:23:41;;;;;;;10.40;6.60;;;-4.80;99.90;;;;;;4952720;28;20557;-46
2024/01/09 09:26:08;;;;;;;8.67;6.13;;;-4.60;99.90;;;;;;4942561;28;20228;-44
2024/01/09 09:28:35;;;;;;;9.47;6.53;;;-4.50;99.90;;;;;;4956745;28;20205;-47
2024/01/09 09:31:02;;;;;;;8.60;6.70;;;-4.40;99.90;;;;;;4927915;28;21362;-46
2024/01/09 09:33:31;;;;;;;8.43;6.00;;;-4.40;99.90;;;;;;4961105;28;20220;-46
2024/01/09 09:35:58;;;;;;;9.63;6.73;;;-4.40;99.90;;;;;;4949285;28;20232;-46
2024/01/09 09:38:25;;;;;;;9.53;6.27;;;-4.40;99.90;;;;;;4949943;28;20209;-48
2024/01/09 09:40:53;;;;;;;8.43;6.30;;;-4.30;99.90;;;;;;4943466;28;20319;-49
2024/01/09 09:43:25;;;;;;;8.73;6.53;;;-4.30;99.90;;;;;;4950443;28;20206;-44
2024/01/09 09:45:56;;;;;;;9.63;6.60;;;-4.20;99.90;;;;;;4958144;28;20830;-43
2024/01/09 09:48:25;;;;;;;9.83;5.67;;;-4.00;99.90;;;;;;4928334;28;20208;-45
2024/01/09 09:50:54;;;;;;;7.40;4.63;;;-3.90;99.90;;;;;;4948715;28;20649;-46
2024/01/09 09:53:22;;;;;;;7.43;5.33;;;-3.80;99.90;;;;;;4954909;28;20337;-43
2024/01/09 09:55:50;;;;;;;9.80;5.77;;;-3.60;99.90;;;;;;4953860;28;20296;-44
2024/01/09 09:58:18;;;;;;;7.00;5.60;;;-3.60;99.90;;;;;;4952741;28;20233;-44
2024/01/09 10:00:45;;;;;;;8.70;5.37;;;-3.60;99.90;;;;;;4961195;28;20205;-48
2024/01/09 10:03:12;;;;;;;6.67;5.37;;;-3.60;99.90;;;;;;4941542;28;20214;-49
2024/01/09 10:05:41;;;;;;;7.10;4.73;;;-3.50;99.90;;;;;;4951511;28;20221;-48
2024/01/09 10:08:08;;;;;;;8.10;5.37;;;-3.50;99.90;;;;;;4950248;28;20217;-46
2024/01/09 10:10:35;;;;;;;8.00;5.90;;;-3.40;99.90;;;;;;4955745;28;20206;-47
2024/01/09 10:13:03;;;;;;;7.80;4.97;;;-3.30;99.90;;;;;;4953832;28;20486;-46
2024/01/09 10:15:31;;;;;;;8.57;5.27;;;-3.30;99.90;;;;;;4956953;28;20309;-46
2024/01/09 10:18:01;;;;;;;7.03;5.33;;;-3.20;99.90;;;;;;4934089;28;20241;-47
2024/01/09 10:20:29;;;;;;;8.37;5.53;;;-3.10;99.90;;;;;;4955593;28;20191;-47
2024/01/09 10:22:57;;;;;;;8.77;5.93;;;-3.10;99.90;;;;;;4936975;28;20205;-44
2024/01/09 10:25:24;;;;;;;8.57;5.67;;;-3.10;99.90;;;;;;4962897;28;20632;-45
2024/01/09 10:27:51;;;;;;;9.17;5.47;;;-3.00;99.90;;;;;;4949993;28;20268;-45
2024/01/09 10:30:21;;;;;;;8.83;5.90;;;-3.00;99.90;;;;;;4948331;28;20297;-44
2024/01/09 10:32:51;;;;;;;8.00;6.20;;;-3.00;99.90;;;;;;4957655;28;20210;-48
2024/01/09 10:35:18;;;;;;;10.97;6.27;;;-2.90;99.90;;;;;;4924398;28;20348;-45
2024/01/09 10:37:46;;;;;;;8.50;6.17;;;-2.90;99.90;;;;;;4934319;28;20214;-45
2024/01/09 10:40:13;;;;;;;9.67;5.80;;;-2.90;99.90;;;;;;4962314;28;20253;-49
2024/01/09 10:42:47;;;;;;;9.43;6.37;;;-2.80;99.90;;;;;;4953452;28;20203;-45
2024/01/09 10:45:15;;;;;;;9.13;5.73;;;-2.80;99.90;;;;;;4944983;28;20330;-45
2024/01/09 10:47:44;;;;;;;8.57;6.63;;;-2.70;99.90;;;;;;4952809;28;20190;-48
2024/01/09 10:50:12;;;;;;;8.23;5.50;;;-2.60;99.90;;;;;;4926923;28;20213;-45
2024/01/09 10:52:40;;;;;;;6.97;5.50;;;-2.60;99.90;;;;;;4952764;28;20207;-47
2024/01/09 10:55:10;;;;;;;10.63;5.90;;;-2.50;99.90;;;;;;4965521;28;20221;-46
2024/01/09 10:57:40;;;;;;;8.10;5.70;;;-2.50;99.90;;;;;;4962625;28;20190;-48
2024/01/09 11:00:11;;;;;;;7.93;5.10;;;-2.50;99.90;;;;;;4957030;28;20219;-46
2024/01/09 11:02:38;;;;;;;10.07;5.80;;;-2.40;99.90;;;;;;4948071;28;20230;-45
2024/01/09 11:05:06;;;;;;;9.23;5.90;;;-2.40;99.90;;;;;;4960574;28;20246;-44
2024/01/09 11:07:35;;;;;;;9.53;6.20;;;-2.20;99.90;;;;;;4945784;28;20945;-45
2024/01/09 11:10:03;;;;;;;11.77;6.00;;;-2.20;99.90;;;;;;4954574;28;20208;-45
2024/01/09 11:12:35;;;;;;;11.17;7.63;;;-2.20;99.90;;;;;;4961916;28;20232;-45
2024/01/09 11:15:08;;;;;;;12.77;6.33;;;-2.20;99.90;;;;;;4954562;28;20233;-44
2024/01/09 11:17:37;;;;;;;13.43;7.00;;;-2.20;99.90;;;;;;4943653;28;20711;-47
2024/01/09 11:20:06;;;;;;;14.13;9.27;;;-2.20;99.90;;;;;;4953443;28;20198;-46
2024/01/09 11:22:36;;;;;;;12.63;7.27;;;-2.10;99.90;;;;;;4937122;28;20292;-47
2024/01/09 11:25:05;;;;;;;14.87;8.60;;;-2.10;99.90;;;;;;4951804;28;21037;-45
2024/01/09 11:27:41;;;;;;;13.67;8.20;;;-2.20;99.90;;;;;;4964123;28;20297;-46
2024/01/09 11:30:13;;;;;;;12.97;8.07;;;-2.20;99.90;;;;;;4948539;28;20219;-46
2024/01/09 11:32:41;;;;;;;11.37;7.97;;;-2.20;99.90;;;;;;4938849;28;20255;-45
2024/01/09 11:35:13;;;;;;;13.33;9.10;;;-2.20;99.90;;;;;;4952196;28;20264;-49
2024/01/09 11:37:43;;;;;;;12.87;8.10;;;-2.20;99.90;;;;;;4932595;28;20233;-44
2024/01/09 11:40:12;;;;;;;13.57;8.53;;;-2.20;99.90;;;;;;4947120;28;20225;-46
2024/01/09 11:42:40;;;;;;;15.30;8.77;;;-2.30;99.90;;;;;;4949939;28;20288;-43
2024/01/09 11:45:09;;;;;;;14.23;9.17;;;-2.30;99.90;;;;;;4930485;28;20226;-45
2024/01/09 11:47:39;;;;;;;14.50;8.10;;;-2.30;99.90;;;;;;4948594;28;20210;-44
2024/01/09 11:50:08;;;;;;;10.87;7.70;;;-2.30;99.90;;;;;;4952831;28;20725;-46
2024/01/09 11:52:35;;;;;;;11.23;7.90;;;-2.30;99.90;;;;;;4934003;28;20565;-43
2024/01/09 11:55:05;;;;;;;13.73;8.13;;;-2.20;99.90;;;;;;4954005;28;20230;-44
2024/01/09 11:57:32;;;;;;;14.60;8.17;;;-2.20;99.90;;;;;;4947246;28;20257;-46
2024/01/09 12:00:00;;;;;;;11.57;9.20;;;-2.10;99.90;;;;;;4956110;28;20191;-50
2024/01/09 12:02:27;;;;;;;15.27;9.03;;;-2.10;99.90;;;;;;4945454;28;20234;-45
2024/01/09 12:04:54;;;;;;;9.80;7.40;;;-2.10;99.90;;;;;;4954848;28;20252;-47
2024/01/09 12:07:21;;;;;;;12.77;7.50;;;-2.10;99.90;;;;;;4956243;28;20772;-43
2024/01/09 12:09:49;;;;;;;11.10;7.97;;;-2.10;99.90;;;;;;4932112;28;20216;-43
2024/01/09 12:12:21;;;;;;;13.87;8.80;;;-2.10;99.90;;;;;;4934741;28;20202;-45
2024/01/09 12:14:52;;;;;;;12.73;7.07;;;-2.10;99.90;;;;;;4959678;28;20272;-44
2024/01/09 12:17:19;;;;;;;13.70;7.73;;;-2.10;99.90;;;;;;4948207;28;20209;-47
2024/01/09 12:19:46;;;;;;;9.20;6.63;;;-2.10;99.90;;;;;;4958188;28;20316;-44
2024/01/09 12:22:14;;;;;;;13.30;7.70;;;-2.10;99.90;;;;;;4952340;28;20194;-44
2024/01/09 12:24:42;;;;;;;12.87;7.93;;;-2.00;99.90;;;;;;4927207;28;20272;-44
2024/01/09 12:27:09;;;;;;;14.57;8.50;;;-2.10;99.90;;;;;;4942504;28;20579;-46
2024/01/09 12:29:40;;;;;;;10.70;7.70;;;-2.10;99.90;;;;;;4961217;28;20213;-43
2024/01/09 12:32:07;;;;;;;11.10;7.53;;;-2.10;99.90;;;;;;4940410;28;20210;-43
2024/01/09 12:34:35;;;;;;;12.70;7.87;;;-2.10;99.90;;;;;;4950453;28;20214;-46
2024/01/09 12:37:05;;;;;;;15.40;7.73;;;-2.00;99.90;;;;;;4960169;28;20773;-44
2024/01/09 12:39:33;;;;;;;11.33;7.57;;;-2.00;99.90;;;;;;4930168;28;20288;-46
2024/01/09 12:42:07;;;;;;;12.97;7.47;;;-2.00;99.90;;;;;;4949063;28;20208;-43
2024/01/09 12:44:34;;;;;;;12.70;7.33;;;-2.00;99.90;;;;;;4949769;28;20256;-43